Time;durP1;ratioP1;P1;durP2;ratioP2;P2;SDS_P1;SDS_P2;PMS_P1;PMS_P2;Temp;Humidity;BMP_temperature;BMP_pressure;BME280_temperature;BME280_humidity;BME280_pressure;Samples;Min_cycle;Max_cycle;Signal;HPM_P1;HPM_P2
2023/05/20 00:02:22;;;;;;;14.85;10.13;;;;;;;-142.57;100.00;115900.28;4843463;29;20139;-84
2023/05/20 00:04:48;;;;;;;20.55;10.13;;;;;;;-142.57;100.00;115900.28;4843793;29;20061;-84
2023/05/20 00:07:13;;;;;;;20.23;10.85;;;;;;;-142.57;100.00;115900.28;4851907;29;20040;-85
2023/05/20 00:09:39;;;;;;;18.52;10.90;;;;;;;-142.57;100.00;115900.28;4860216;29;20049;-86
2023/05/20 00:12:05;;;;;;;18.88;10.82;;;;;;;-142.57;100.00;115900.28;4860628;29;20085;-85
2023/05/20 00:14:30;;;;;;;14.85;10.30;;;;;;;-142.57;100.00;115900.28;4844016;29;20085;-85
2023/05/20 00:16:56;;;;;;;15.20;11.23;;;;;;;-142.57;100.00;115900.28;4860517;29;20037;-84
2023/05/20 00:19:21;;;;;;;21.67;12.07;;;;;;;-142.57;100.00;115900.28;4860325;29;20479;-85
2023/05/20 00:21:47;;;;;;;22.38;12.77;;;;;;;-142.57;100.00;115900.28;4857690;29;20108;-84
2023/05/20 00:24:12;;;;;;;21.67;13.93;;;;;;;-142.57;100.00;115900.28;4857666;29;20072;-88
2023/05/20 00:26:38;;;;;;;21.17;12.45;;;;;;;-142.57;100.00;115900.28;4854940;29;20396;-85
2023/05/20 00:29:03;;;;;;;21.05;12.93;;;;;;;-142.57;100.00;115900.28;4850899;29;20033;-82
2023/05/20 00:31:29;;;;;;;23.98;12.93;;;;;;;-142.57;100.00;115900.28;4850969;29;20097;-84
2023/05/20 00:33:54;;;;;;;25.45;12.80;;;;;;;-142.57;100.00;115900.28;4849702;29;20056;-84
2023/05/20 00:36:20;;;;;;;23.25;13.15;;;;;;;-142.57;100.00;115900.28;4834917;29;20073;-82
2023/05/20 00:38:46;;;;;;;21.95;13.43;;;;;;;-142.57;100.00;115900.28;4850578;29;20094;-84
2023/05/20 00:41:11;;;;;;;22.92;12.82;;;;;;;-142.57;100.00;115900.28;4850174;29;20057;-84
2023/05/20 00:43:37;;;;;;;20.27;12.02;;;;;;;-142.57;100.00;115900.28;4851568;29;20146;-83
2023/05/20 00:46:02;;;;;;;20.42;13.45;;;;;;;-142.57;100.00;115900.28;4835649;29;20397;-84
2023/05/20 00:48:38;;;;;;;25.08;13.45;;;;;;;-142.57;100.00;115900.28;4850541;29;20045;-83
2023/05/20 00:51:07;;;;;;;20.50;13.40;;;;;;;-142.57;100.00;115900.28;4850596;29;20042;-82
2023/05/20 00:53:33;;;;;;;22.73;13.45;;;;;;;-142.57;100.00;115900.28;4849567;29;20034;-83
2023/05/20 00:55:59;;;;;;;22.70;13.88;;;;;;;-142.57;100.00;115900.28;4850847;29;20033;-84
2023/05/20 00:58:28;;;;;;;22.63;13.02;;;;;;;-142.57;100.00;115900.28;4850566;29;20110;-82
2023/05/20 01:00:54;;;;;;;26.00;14.05;;;;;;;-142.57;100.00;115900.28;4849388;29;20121;-83
2023/05/20 01:03:19;;;;;;;24.45;13.55;;;;;;;-142.57;100.00;115900.28;4850990;29;20053;-82
2023/05/20 01:05:45;;;;;;;22.10;13.90;;;;;;;-142.57;100.00;115900.28;4850373;29;20030;-82
2023/05/20 01:08:11;;;;;;;21.30;13.32;;;;;;;-142.57;100.00;115900.28;4849392;29;20037;-82
2023/05/20 01:10:42;;;;;;;21.73;12.43;;;;;;;-142.57;100.00;115900.28;4829009;29;20041;-81
2023/05/20 01:13:12;;;;;;;22.35;13.27;;;;;;;-142.57;100.00;115900.28;4854868;29;20056;-84
2023/05/20 01:15:40;;;;;;;20.48;13.40;;;;;;;-142.57;100.00;115900.28;4848799;29;20399;-86
2023/05/20 01:18:09;;;;;;;21.88;13.43;;;;;;;-142.57;100.00;115900.28;4849305;29;20034;-84
2023/05/20 01:20:36;;;;;;;24.67;12.85;;;;;;;-142.57;100.00;115900.28;4849936;29;20372;-85
2023/05/20 01:23:03;;;;;;;21.05;12.90;;;;;;;-142.57;100.00;115900.28;4851283;29;20113;-82
2023/05/20 01:25:28;;;;;;;21.45;13.57;;;;;;;-142.57;100.00;115900.28;4846222;29;20037;-84
2023/05/20 01:27:59;;;;;;;22.75;12.05;;;;;;;-142.57;100.00;115900.28;4855645;29;20053;-82
2023/05/20 01:30:34;;;;;;;18.58;12.35;;;;;;;-142.57;100.00;115900.28;4849494;29;20405;-83
2023/05/20 01:33:10;;;;;;;20.27;13.02;;;;;;;-142.57;100.00;115900.28;4848979;29;20038;-82
2023/05/20 01:35:36;;;;;;;19.77;13.02;;;;;;;-142.57;100.00;115900.28;4849224;29;20050;-83
2023/05/20 01:38:05;;;;;;;21.08;13.70;;;;;;;-142.57;100.00;115900.28;4850747;29;20041;-84
2023/05/20 01:40:32;;;;;;;22.42;13.38;;;;;;;-142.57;100.00;115900.28;4850425;29;20492;-82
2023/05/20 01:43:00;;;;;;;21.05;12.90;;;;;;;-142.57;100.00;115900.28;4847637;29;20058;-81
2023/05/20 01:45:27;;;;;;;19.67;12.90;;;;;;;-142.57;100.00;115900.28;4843459;29;20126;-85
2023/05/20 01:47:53;;;;;;;18.55;12.25;;;;;;;-142.57;100.00;115900.28;4843005;29;20038;-82
2023/05/20 01:50:19;;;;;;;25.00;13.18;;;;;;;-142.57;100.00;115900.28;4859449;29;20547;-84
2023/05/20 01:52:45;;;;;;;19.63;13.27;;;;;;;-142.57;100.00;115900.28;4859711;29;20135;-84
2023/05/20 01:55:10;;;;;;;25.73;13.20;;;;;;;-142.57;100.00;115900.28;4859985;29;20552;-87
2023/05/20 01:57:36;;;;;;;20.27;13.38;;;;;;;-142.57;100.00;115900.28;4862501;29;20041;-83
2023/05/20 02:00:03;;;;;;;18.55;13.07;;;;;;;-142.57;100.00;115900.28;4847393;29;20189;-84
2023/05/20 02:02:39;;;;;;;24.02;14.15;;;;;;;-142.57;100.00;115900.28;4863734;29;20398;-83
2023/05/20 02:05:05;;;;;;;19.95;12.82;;;;;;;-142.57;100.00;115900.28;4863122;29;20041;-85
2023/05/20 02:07:31;;;;;;;20.17;13.15;;;;;;;-142.57;100.00;115900.28;4846344;29;20047;-82
2023/05/20 02:09:56;;;;;;;23.30;14.18;;;;;;;-142.57;100.00;115900.28;4846373;29;20046;-84
2023/05/20 02:12:22;;;;;;;23.52;13.05;;;;;;;-142.57;100.00;115900.28;4862853;29;20037;-85
2023/05/20 02:14:49;;;;;;;25.67;13.32;;;;;;;-142.57;100.00;115900.28;4863626;29;20072;-85
2023/05/20 02:17:16;;;;;;;19.10;12.27;;;;;;;-142.57;100.00;115900.28;4864178;29;20029;-85
2023/05/20 02:19:43;;;;;;;25.02;13.98;;;;;;;-142.57;100.00;115900.28;4864716;29;20387;-84
2023/05/20 02:22:08;;;;;;;23.20;13.45;;;;;;;-142.57;100.00;115900.28;4863557;29;20041;-84
2023/05/20 02:24:35;;;;;;;19.60;12.80;;;;;;;-142.57;100.00;115900.28;4865167;29;20165;-83
2023/05/20 02:27:02;;;;;;;20.00;12.98;;;;;;;-142.57;100.00;115900.28;4849824;29;20041;-82
2023/05/20 02:29:27;;;;;;;23.55;13.07;;;;;;;-142.57;100.00;115900.28;4865894;29;20052;-81
2023/05/20 02:31:53;;;;;;;22.00;13.07;;;;;;;-142.57;100.00;115900.28;4882054;29;20041;-84
2023/05/20 02:34:20;;;;;;;19.45;13.05;;;;;;;-142.57;100.00;115900.28;4866525;29;20073;-84
2023/05/20 02:36:49;;;;;;;23.30;13.10;;;;;;;-142.57;100.00;115900.28;4881931;29;20037;-83
2023/05/20 02:39:15;;;;;;;20.38;12.45;;;;;;;-142.57;100.00;115900.28;4879795;29;20041;-81
2023/05/20 02:41:41;;;;;;;20.33;13.35;;;;;;;-142.57;100.00;115900.28;4876244;29;20040;-83
2023/05/20 02:44:08;;;;;;;18.92;12.13;;;;;;;-142.57;100.00;115900.28;4875546;29;20045;-82
2023/05/20 02:46:33;;;;;;;19.52;12.43;;;;;;;-142.57;100.00;115900.28;4871054;29;20029;-86
2023/05/20 02:48:59;;;;;;;24.75;13.38;;;;;;;-142.57;100.00;115900.28;4873474;29;20037;-83
2023/05/20 02:51:25;;;;;;;21.05;13.82;;;;;;;-142.57;100.00;115900.28;4880533;29;20086;-85
2023/05/20 02:53:50;;;;;;;23.20;14.23;;;;;;;-142.57;100.00;115900.28;4862227;29;20048;-86
2023/05/20 02:56:20;;;;;;;23.48;13.77;;;;;;;-142.57;100.00;115900.28;4862015;29;20045;-88
2023/05/20 02:58:46;;;;;;;18.73;12.80;;;;;;;-142.57;100.00;115900.28;4846218;29;20133;-86
2023/05/20 03:01:12;;;;;;;18.80;12.38;;;;;;;-142.57;100.00;115900.28;4845775;29;20034;-86
2023/05/20 03:03:39;;;;;;;21.88;13.68;;;;;;;-142.57;100.00;115900.28;4863674;29;20042;-87
2023/05/20 03:06:05;;;;;;;23.38;13.77;;;;;;;-142.57;100.00;115900.28;4845786;29;20504;-84
2023/05/20 03:08:33;;;;;;;19.88;13.55;;;;;;;-142.57;100.00;115900.28;4859824;29;20051;-84
2023/05/20 03:10:59;;;;;;;21.00;13.40;;;;;;;-142.57;100.00;115900.28;4860975;29;20041;-86
2023/05/20 03:13:26;;;;;;;23.63;13.63;;;;;;;-142.57;100.00;115900.28;4845938;29;20117;-88
2023/05/20 03:15:52;;;;;;;18.85;12.98;;;;;;;-142.57;100.00;115900.28;4862119;29;20184;-87
2023/05/20 03:18:17;;;;;;;21.50;13.70;;;;;;;-142.57;100.00;115900.28;4845411;29;20068;-87
2023/05/20 03:20:45;;;;;;;21.73;13.00;;;;;;;-142.57;100.00;115900.28;4845387;29;20045;-88
2023/05/20 03:23:11;;;;;;;22.08;13.40;;;;;;;-142.57;100.00;115900.28;4845555;29;20128;-87
2023/05/20 03:25:37;;;;;;;22.63;14.40;;;;;;;-142.57;100.00;115900.28;4845377;29;20021;-86
2023/05/20 03:28:05;;;;;;;19.27;13.25;;;;;;;-142.57;100.00;115900.28;4844938;29;20049;-85
2023/05/20 03:30:32;;;;;;;26.80;13.90;;;;;;;-142.57;100.00;115900.28;4844883;29;20037;-87
2023/05/20 03:32:58;;;;;;;25.33;13.27;;;;;;;-142.57;100.00;115900.28;4860467;29;20060;-85
2023/05/20 03:35:27;;;;;;;24.50;13.65;;;;;;;-142.57;100.00;115900.28;4844986;29;21361;-87
2023/05/20 03:37:53;;;;;;;24.55;14.30;;;;;;;-142.57;100.00;115900.28;4844684;29;20127;-85
2023/05/20 03:40:22;;;;;;;25.17;15.38;;;;;;;-142.57;100.00;115900.28;4861358;29;20087;-86
2023/05/20 03:42:49;;;;;;;24.20;16.02;;;;;;;-142.57;100.00;115900.28;4845066;29;20037;-87
2023/05/20 03:45:16;;;;;;;27.65;15.82;;;;;;;-142.57;100.00;115900.28;4844726;29;20419;-88
2023/05/20 03:47:51;;;;;;;25.38;15.73;;;;;;;-142.57;100.00;115900.28;4844513;29;20124;-86
2023/05/20 03:50:17;;;;;;;26.40;15.82;;;;;;;-142.57;100.00;115900.28;4859525;29;20447;-88
2023/05/20 03:52:43;;;;;;;24.77;15.82;;;;;;;-142.57;100.00;115900.28;4861103;29;20030;-86
2023/05/20 03:55:09;;;;;;;30.77;17.33;;;;;;;-142.57;100.00;115900.28;4843773;29;20046;-86
2023/05/20 03:57:35;;;;;;;30.95;16.23;;;;;;;-142.57;100.00;115900.28;4844611;29;20106;-87
2023/05/20 04:00:04;;;;;;;31.67;16.50;;;;;;;-142.57;100.00;115900.28;4862660;29;20521;-86
2023/05/20 04:02:30;;;;;;;24.17;16.30;;;;;;;-142.57;100.00;115900.28;4879783;29;20456;-87
2023/05/20 04:04:56;;;;;;;25.48;16.70;;;;;;;-142.57;100.00;115900.28;4862379;29;20045;-87
2023/05/20 04:07:25;;;;;;;25.73;16.83;;;;;;;-142.57;100.00;115900.28;4861988;29;20028;-84
2023/05/20 04:09:51;;;;;;;26.90;17.50;;;;;;;-142.57;100.00;115900.28;4862501;29;20033;-85
2023/05/20 04:12:18;;;;;;;24.52;15.68;;;;;;;-142.57;100.00;115900.28;4877524;29;20037;-85
2023/05/20 04:14:43;;;;;;;20.67;14.80;;;;;;;-142.57;100.00;115900.28;4883665;29;20033;-86
2023/05/20 04:17:09;;;;;;;27.75;17.00;;;;;;;-142.57;100.00;115900.28;4861905;29;20033;-85
2023/05/20 04:19:35;;;;;;;27.05;16.95;;;;;;;-142.57;100.00;115900.28;4878984;29;20053;-86
2023/05/20 04:22:00;;;;;;;25.65;16.73;;;;;;;-142.57;100.00;115900.28;4861867;29;20111;-85
2023/05/20 04:24:26;;;;;;;26.10;17.35;;;;;;;-142.57;100.00;115900.28;4861815;29;20381;-85
2023/05/20 04:26:52;;;;;;;27.10;17.42;;;;;;;-142.57;100.00;115900.28;4861853;29;20049;-84
2023/05/20 04:29:19;;;;;;;27.70;16.98;;;;;;;-142.57;100.00;115900.28;4861789;29;20060;-83
2023/05/20 04:31:46;;;;;;;32.45;17.13;;;;;;;-142.57;100.00;115900.28;4861944;29;20077;-86
2023/05/20 04:34:13;;;;;;;31.88;18.33;;;;;;;-142.57;100.00;115900.28;4861971;29;20172;-81
2023/05/20 04:36:39;;;;;;;27.15;16.08;;;;;;;-142.57;100.00;115900.28;4862091;29;20045;-86
2023/05/20 04:39:06;;;;;;;24.90;16.08;;;;;;;-142.57;100.00;115900.28;4861767;29;20048;-85
2023/05/20 04:41:32;;;;;;;28.88;17.08;;;;;;;-142.57;100.00;115900.28;4878956;29;20258;-86
2023/05/20 04:44:01;;;;;;;24.40;16.50;;;;;;;-142.57;100.00;115900.28;4877521;29;20155;-85
2023/05/20 04:46:28;;;;;;;24.95;16.20;;;;;;;-142.57;100.00;115900.28;4862122;29;20037;-86
2023/05/20 04:48:54;;;;;;;23.88;16.50;;;;;;;-142.57;100.00;115900.28;4861930;29;20088;-85
2023/05/20 04:51:19;;;;;;;27.10;17.55;;;;;;;-142.57;100.00;115900.28;4878729;29;20116;-83
2023/05/20 04:53:45;;;;;;;27.15;16.95;;;;;;;-142.57;100.00;115900.28;4878692;29;20045;-86
2023/05/20 04:56:12;;;;;;;27.60;17.90;;;;;;;-142.57;100.00;115900.28;4862144;29;20041;-83
2023/05/20 04:58:38;;;;;;;31.15;19.13;;;;;;;-142.57;100.00;115900.28;4861963;29;20522;-82
2023/05/20 05:01:04;;;;;;;29.25;18.77;;;;;;;-142.57;100.00;115900.28;4846807;29;20102;-82
2023/05/20 05:03:31;;;;;;;28.65;19.25;;;;;;;-142.57;100.00;115900.28;4877695;29;20041;-83
2023/05/20 05:05:57;;;;;;;31.50;20.83;;;;;;;-142.57;100.00;115900.28;4861945;29;20105;-85
2023/05/20 05:08:23;;;;;;;33.97;21.88;;;;;;;-142.57;100.00;115900.28;4861592;29;20045;-85
2023/05/20 05:10:50;;;;;;;31.55;22.17;;;;;;;-142.57;100.00;115900.28;4861735;29;20071;-82
2023/05/20 05:13:16;;;;;;;37.75;21.58;;;;;;;-142.57;100.00;115900.28;4884697;29;20033;-84
2023/05/20 05:15:41;;;;;;;36.17;22.83;;;;;;;-142.57;100.00;115900.28;4888960;29;20120;-83
2023/05/20 05:18:07;;;;;;;36.80;22.95;;;;;;;-142.57;100.00;115900.28;4871885;29;20089;-85
2023/05/20 05:20:34;;;;;;;36.83;23.05;;;;;;;-142.57;100.00;115900.28;4871738;29;20063;-85
2023/05/20 05:22:59;;;;;;;35.40;22.15;;;;;;;-142.57;100.00;115900.28;4890108;29;20089;-87
2023/05/20 05:25:25;;;;;;;34.20;22.20;;;;;;;-142.57;100.00;115900.28;4889655;29;20033;-87
2023/05/20 05:27:54;;;;;;;41.15;24.77;;;;;;;-142.57;100.00;115900.28;4886225;29;20140;-85
2023/05/20 05:30:21;;;;;;;38.13;22.33;;;;;;;-142.57;100.00;115900.28;4869031;29;20037;-84
2023/05/20 05:32:46;;;;;;;39.08;24.30;;;;;;;-142.57;100.00;115900.28;4864343;29;20021;-85
2023/05/20 05:35:12;;;;;;;35.80;20.90;;;;;;;-142.57;100.00;115900.28;4862582;29;20641;-80
2023/05/20 05:37:45;;;;;;;34.75;22.45;;;;;;;-142.57;100.00;115900.28;4859511;29;20042;-84
2023/05/20 05:40:11;;;;;;;33.78;22.45;;;;;;;-142.57;100.00;115900.28;4828665;29;20068;-85
2023/05/20 05:42:37;;;;;;;34.50;23.08;;;;;;;-142.57;100.00;115900.28;4845022;29;20030;-84
2023/05/20 05:45:03;;;;;;;35.65;21.52;;;;;;;-142.57;100.00;115900.28;4828850;29;20443;-85
2023/05/20 05:47:31;;;;;;;42.88;24.38;;;;;;;-142.57;100.00;115900.28;4828543;29;20199;-85
2023/05/20 05:49:58;;;;;;;33.40;21.73;;;;;;;-142.57;100.00;115900.28;4828775;29;20068;-86
2023/05/20 05:52:26;;;;;;;36.75;23.45;;;;;;;-142.57;100.00;115900.28;4828949;29;20061;-85
2023/05/20 05:54:51;;;;;;;41.15;25.25;;;;;;;-142.57;100.00;115900.28;4828171;29;20038;-85
2023/05/20 05:57:17;;;;;;;40.80;25.33;;;;;;;-142.57;100.00;115900.28;4828145;29;20038;-84
2023/05/20 05:59:43;;;;;;;42.28;25.90;;;;;;;-142.57;100.00;115900.28;4843733;29;20036;-83
2023/05/20 06:02:09;;;;;;;41.05;25.38;;;;;;;-142.57;100.00;115900.28;4828074;29;20377;-88
2023/05/20 06:04:35;;;;;;;49.35;26.65;;;;;;;-142.57;100.00;115900.28;4828762;29;20049;-88
2023/05/20 06:07:01;;;;;;;45.35;27.38;;;;;;;-142.57;100.00;115900.28;4828701;29;20058;-89
2023/05/20 06:09:26;;;;;;;43.90;26.38;;;;;;;-142.57;100.00;115900.28;4829547;29;20042;-86
2023/05/20 06:11:52;;;;;;;43.65;26.58;;;;;;;-142.57;100.00;115900.28;4828463;29;20059;-86
2023/05/20 06:14:20;;;;;;;40.13;25.40;;;;;;;-142.57;100.00;115900.28;4844872;29;20044;-87
2023/05/20 06:16:49;;;;;;;39.65;26.20;;;;;;;-142.57;100.00;115900.28;4828589;29;20037;-91
2023/05/20 06:19:16;;;;;;;49.00;26.77;;;;;;;-142.57;100.00;115900.28;4829899;29;20089;-88
2023/05/20 06:21:43;;;;;;;40.47;24.45;;;;;;;-142.57;100.00;115900.28;4846924;29;20037;-89
2023/05/20 06:24:10;;;;;;;45.97;27.38;;;;;;;-142.57;100.00;115900.28;4828675;29;20052;-86
2023/05/20 06:26:38;;;;;;;44.83;25.15;;;;;;;-142.57;100.00;115900.28;4829540;29;20496;-84
2023/05/20 06:29:04;;;;;;;44.92;25.92;;;;;;;-142.57;100.00;115900.28;4828476;29;20078;-87
2023/05/20 06:31:30;;;;;;;46.60;24.70;;;;;;;-142.57;100.00;115900.28;4827655;29;20035;-84
2023/05/20 06:33:56;;;;;;;49.97;24.75;;;;;;;-142.57;100.00;115900.28;4828150;29;20030;-87
2023/05/20 06:36:21;;;;;;;47.85;25.63;;;;;;;-142.57;100.00;115900.28;4828755;29;20408;-91
2023/05/20 06:38:47;;;;;;;45.97;26.20;;;;;;;-142.57;100.00;115900.28;4826559;29;20053;-88
2023/05/20 06:41:14;;;;;;;44.10;26.45;;;;;;;-142.57;100.00;115900.28;4825913;29;20140;-90
2023/05/20 06:43:39;;;;;;;45.97;25.90;;;;;;;-142.57;100.00;115900.28;4827960;29;20058;-89
2023/05/20 06:46:15;;;;;;;44.72;27.38;;;;;;;-142.57;100.00;115900.28;4844636;29;20171;-89
2023/05/20 06:48:46;;;;;;;52.38;27.27;;;;;;;-142.57;100.00;115900.28;4827460;29;20113;-88
2023/05/20 06:51:12;;;;;;;49.42;26.98;;;;;;;-142.57;100.00;115900.28;4843654;29;20222;-91
2023/05/20 06:53:38;;;;;;;46.15;27.10;;;;;;;-142.57;100.00;115900.28;4813787;29;20066;-86
2023/05/20 06:56:04;;;;;;;51.22;26.23;;;;;;;-142.57;100.00;115900.28;4827077;29;20574;-87
2023/05/20 06:58:31;;;;;;;42.53;26.27;;;;;;;-142.57;100.00;115900.28;4828212;29;20038;-86
2023/05/20 07:00:57;;;;;;;47.30;26.75;;;;;;;-142.57;100.00;115900.28;4827921;29;20042;-88
2023/05/20 07:03:23;;;;;;;44.10;25.55;;;;;;;-142.57;100.00;115900.28;4827663;29;20034;-85
2023/05/20 07:05:50;;;;;;;42.15;23.85;;;;;;;-142.57;100.00;115900.28;4827617;29;20044;-86
2023/05/20 07:08:17;;;;;;;37.10;23.70;;;;;;;-142.57;100.00;115900.28;4829890;29;20022;-84
2023/05/20 07:10:44;;;;;;;45.03;25.20;;;;;;;-142.57;100.00;115900.28;4830711;29;20046;-86
2023/05/20 07:13:10;;;;;;;41.75;24.73;;;;;;;-142.57;100.00;115900.28;4845777;29;20098;-85
2023/05/20 07:15:37;;;;;;;41.97;25.40;;;;;;;-142.57;100.00;115900.28;4826551;29;20041;-86
2023/05/20 07:18:03;;;;;;;41.60;24.17;;;;;;;-142.57;100.00;115900.28;4841624;29;20073;-86
2023/05/20 07:20:28;;;;;;;45.25;27.00;;;;;;;-142.57;100.00;115900.28;4826880;29;20117;-88
2023/05/20 07:22:56;;;;;;;43.95;25.65;;;;;;;-142.57;100.00;115900.28;4828142;29;20050;-87
2023/05/20 07:25:34;;;;;;;42.33;24.40;;;;;;;-142.57;100.00;115900.28;4828361;29;20040;-89
2023/05/20 07:28:00;;;;;;;45.13;25.08;;;;;;;-142.57;100.00;115900.28;4828971;29;20145;-88
2023/05/20 07:30:26;;;;;;;41.08;24.33;;;;;;;-142.57;100.00;115900.28;4842750;29;20120;-88
2023/05/20 07:33:23;;;;;;;45.78;24.90;;;;;;;-142.57;100.00;115900.28;4836468;29;20508;-88
2023/05/20 07:35:49;;;;;;;47.88;26.95;;;;;;;-142.57;100.00;115900.28;4853393;29;20037;-91
2023/05/20 07:38:16;;;;;;;41.78;25.15;;;;;;;-142.57;100.00;115900.28;4853496;29;20043;-91
2023/05/20 07:40:46;;;;;;;42.75;25.45;;;;;;;-142.57;100.00;115900.28;4827039;29;20118;-92
2023/05/20 07:43:13;;;;;;;36.38;23.10;;;;;;;-142.57;100.00;115900.28;4845413;29;20049;-90
2023/05/20 07:45:42;;;;;;;40.33;23.60;;;;;;;-142.57;100.00;115900.28;4842626;29;20113;-91
2023/05/20 07:48:11;;;;;;;40.95;25.38;;;;;;;-142.57;100.00;115900.28;4857239;29;20037;-88
2023/05/20 07:50:38;;;;;;;46.42;25.35;;;;;;;-142.57;100.00;115900.28;4850448;29;20463;-90
2023/05/20 07:53:05;;;;;;;45.10;24.65;;;;;;;-142.57;100.00;115900.28;4844925;29;20506;-88
2023/05/20 07:55:35;;;;;;;41.25;24.25;;;;;;;-142.57;100.00;115900.28;4851991;29;20025;-88
2023/05/20 07:58:02;;;;;;;44.10;23.83;;;;;;;-142.57;100.00;115900.28;4853241;29;20425;-88
2023/05/20 08:00:29;;;;;;;37.22;23.60;;;;;;;-142.57;100.00;115900.28;4845316;29;20057;-87
2023/05/20 08:03:00;;;;;;;37.83;22.48;;;;;;;-142.57;100.00;115900.28;4843982;29;20404;-88
2023/05/20 08:05:32;;;;;;;40.47;23.27;;;;;;;-142.57;100.00;115900.28;4857955;29;20073;-87
2023/05/20 08:07:58;;;;;;;39.47;22.52;;;;;;;-142.57;100.00;115900.28;4830833;29;20038;-87
2023/05/20 08:10:27;;;;;;;43.28;23.25;;;;;;;-142.57;100.00;115900.28;4835774;29;20071;-88
2023/05/20 08:12:53;;;;;;;42.15;22.50;;;;;;;-142.57;100.00;115900.28;4840373;29;20045;-88
2023/05/20 08:15:18;;;;;;;38.50;21.33;;;;;;;-142.57;100.00;115900.28;4839957;29;20484;-89
2023/05/20 08:17:45;;;;;;;35.10;21.00;;;;;;;-142.57;100.00;115900.28;4817749;29;20034;-88
2023/05/20 08:20:11;;;;;;;43.33;23.08;;;;;;;-142.57;100.00;115900.28;4847255;29;20033;-91
2023/05/20 08:22:37;;;;;;;35.30;21.45;;;;;;;-142.57;100.00;115900.28;4853949;29;20056;-89
2023/05/20 08:25:06;;;;;;;38.70;21.13;;;;;;;-142.57;100.00;115900.28;4847482;29;20110;-89
2023/05/20 08:27:33;;;;;;;36.53;21.90;;;;;;;-142.57;100.00;115900.28;4855440;29;20048;-91
2023/05/20 08:29:59;;;;;;;39.42;22.13;;;;;;;-142.57;100.00;115900.28;4841900;29;20528;-89
2023/05/20 08:32:25;;;;;;;38.72;22.95;;;;;;;-142.57;100.00;115900.28;4846771;29;20196;-85
2023/05/20 08:34:50;;;;;;;42.65;22.70;;;;;;;-142.57;100.00;115900.28;4840431;29;20036;-88
2023/05/20 08:37:16;;;;;;;39.13;21.27;;;;;;;-142.57;100.00;115900.28;4830543;29;20030;-89
2023/05/20 08:39:45;;;;;;;35.20;21.73;;;;;;;-142.57;100.00;115900.28;4865562;29;20078;-91
2023/05/20 08:42:12;;;;;;;40.88;20.98;;;;;;;-142.57;100.00;115900.28;4846629;29;20041;-93
2023/05/20 08:44:44;;;;;;;33.97;20.20;;;;;;;-142.57;100.00;115900.28;4868212;29;20041;-89
2023/05/20 08:47:10;;;;;;;35.55;20.58;;;;;;;-142.57;100.00;115900.28;4853078;29;20037;-88
2023/05/20 08:49:51;;;;;;;43.45;19.85;;;;;;;-142.57;100.00;115900.28;4875757;29;20049;-91
2023/05/20 08:52:21;;;;;;;44.17;20.98;;;;;;;-142.57;100.00;115900.28;4857087;29;20492;-91
2023/05/20 08:54:58;;;;;;;30.65;18.23;;;;;;;-142.57;100.00;115900.28;4872772;29;20514;-88
2023/05/20 09:00:25;;;;;;;39.67;21.10;;;;;;;-142.57;100.00;115900.28;3965806;27;20076;-90
2023/05/20 09:03:07;;;;;;;39.10;22.05;;;;;;;-142.57;100.00;115900.28;4909044;29;20111;-90
2023/05/20 09:06:02;;;;;;;41.33;23.17;;;;;;;-142.57;100.00;115900.28;4895391;29;20475;-87
2023/05/20 09:08:33;;;;;;;42.53;22.98;;;;;;;-142.57;100.00;115900.28;4917847;29;20043;-85
2023/05/20 09:11:01;;;;;;;41.97;24.05;;;;;;;-142.57;100.00;115900.28;4907636;29;20051;-85
2023/05/20 09:13:31;;;;;;;41.15;23.55;;;;;;;-142.57;100.00;115900.28;4909951;29;20502;-90
2023/05/20 09:19:13;;;;;;;39.03;21.98;;;;;;;-142.57;100.00;115900.28;4937681;23;20059;-89
2023/05/20 09:21:41;;;;;;;39.33;21.25;;;;;;;-142.57;100.00;115900.28;4919286;29;20041;-91
2023/05/20 09:24:23;;;;;;;38.75;21.75;;;;;;;-142.57;100.00;115900.28;4896748;29;20068;-90
2023/05/20 09:26:49;;;;;;;38.22;21.05;;;;;;;-142.57;100.00;115900.28;4895563;29;20044;-88
2023/05/20 09:29:20;;;;;;;38.83;21.27;;;;;;;-142.57;100.00;115900.28;4898254;29;20105;-89
2023/05/20 09:31:47;;;;;;;34.75;20.73;;;;;;;-142.57;100.00;115900.28;4902914;29;20063;-87
2023/05/20 09:34:13;;;;;;;37.53;21.55;;;;;;;-142.57;100.00;115900.28;4910283;29;20044;-88
2023/05/20 09:36:49;;;;;;;41.20;22.27;;;;;;;-142.57;100.00;115900.28;4906024;29;20075;-92
2023/05/20 09:39:24;;;;;;;36.47;21.42;;;;;;;-142.57;100.00;115900.28;4899668;29;20044;-89
2023/05/20 09:42:17;;;;;;;36.58;18.95;;;;;;;-142.57;100.00;115900.28;4906048;23;20113;-90
2023/05/20 09:44:44;;;;;;;;;;;;;;;-142.57;100.00;115900.28;4856085;29;20108;-88
2023/05/20 09:47:10;;;;;;;32.25;19.02;;;;;;;-142.57;100.00;115900.28;4881414;29;19951;-90
2023/05/20 09:49:43;;;;;;;32.38;19.80;;;;;;;-142.57;100.00;115900.28;4887566;29;20048;-91
2023/05/20 10:03:50;;;;;;;37.00;21.52;;;;;;;-142.57;100.00;115900.28;3968406;23;20171;-89
2023/05/20 10:09:23;;;;;;;25.05;15.80;;;;;;;-142.57;100.00;115900.28;4945526;23;20411;-88
2023/05/20 10:12:48;;;;;;;35.22;21.70;;;;;;;-142.57;100.00;115900.28;5361124;23;20061;-91
2023/05/20 10:15:51;;;;;;;37.70;22.10;;;;;;;-142.57;100.00;115900.28;4826094;29;20059;-92
2023/05/20 10:30:10;;;;;;;30.05;18.67;;;;;;;-142.57;100.00;115900.28;4935726;23;20551;-88
2023/05/20 10:32:53;;;;;;;32.33;19.85;;;;;;;-142.57;100.00;115900.28;4914749;29;20041;-93
2023/05/20 10:35:22;;;;;;;29.80;19.10;;;;;;;-142.57;100.00;115900.28;4887898;29;20051;-89
2023/05/20 10:37:51;;;;;;;30.98;20.40;;;;;;;-142.57;100.00;115900.28;4914399;29;20049;-89
2023/05/20 10:40:24;;;;;;;33.42;19.77;;;;;;;-142.57;100.00;115900.28;4901729;29;20032;-87
2023/05/20 10:43:07;;;;;;;36.28;19.63;;;;;;;-142.57;100.00;115900.28;4918288;29;20031;-90
2023/05/20 10:45:36;;;;;;;34.55;19.67;;;;;;;-142.57;100.00;115900.28;4902217;29;20032;-93
2023/05/20 10:50:49;;;;;;;34.60;19.98;;;;;;;-142.57;100.00;115900.28;5117369;23;20051;-90
2023/05/20 10:53:21;;;;;;;35.85;19.60;;;;;;;-142.57;100.00;115900.28;4922914;29;20056;-90
2023/05/20 10:55:59;;;;;;;32.08;19.48;;;;;;;-142.57;100.00;115900.28;4928375;29;20024;-91
2023/05/20 10:58:26;;;;;;;39.95;20.92;;;;;;;-142.57;100.00;115900.28;4908859;29;20096;-91
2023/05/20 11:00:58;;;;;;;37.22;21.67;;;;;;;-142.57;100.00;115900.28;4881949;29;20020;-90
2023/05/20 11:03:33;;;;;;;34.45;21.48;;;;;;;-142.57;100.00;115900.28;4924350;29;20506;-93
2023/05/20 11:06:23;;;;;;;49.95;22.38;;;;;;;-142.57;100.00;115900.28;4898064;29;20087;-91
2023/05/20 11:09:09;;;;;;;34.53;22.08;;;;;;;-142.57;100.00;115900.28;4897492;29;20088;-91
2023/05/20 11:12:21;;;;;;;35.13;21.10;;;;;;;-142.57;100.00;115900.28;4916227;29;20044;-90
2023/05/20 11:14:53;;;;;;;31.38;19.90;;;;;;;-142.57;100.00;115900.28;4840891;29;20046;-91
2023/05/20 11:39:00;;;;;;;32.65;19.55;;;;;;;-142.57;100.00;115900.28;4985732;23;20053;-92
2023/05/20 11:41:37;;;;;;;32.15;18.60;;;;;;;-142.57;100.00;115900.28;4914728;29;20024;-91
2023/05/20 12:10:32;;;;;;;31.45;20.85;;;;;;;-142.57;100.00;115900.28;3572547;23;20056;-92
2023/05/20 12:15:38;;;;;;;38.05;21.63;;;;;;;-142.57;100.00;115900.28;4941892;23;20049;-91
2023/05/20 12:18:06;;;;;;;37.85;23.80;;;;;;;-142.57;100.00;115900.28;4878598;29;20045;-92
2023/05/20 12:23:20;;;;;;;38.50;23.70;;;;;;;-142.57;100.00;115900.28;3921478;26;20043;-93